Main page
Satellite images 15-day forecastsClimateMarine weather Cyclones Lightning AirportsFAQ Newsletter About
Weather : Europe Africa North America South America Asia Australia-Oceania Others
Languages Contact

Ljubljana, Slovenia

Brnik

latitude: 46-13N, longitude: 014-29E, elevation: 385 m


METAR: LJLJ 212330Z 00000KT 3000 BR OVC030 05/04 Q1025 NOSIG
TAF: LJLJ 212300Z 2200/2224 VRB02KT 3500 BR FEW010 BKN030 PROB30 2200/2207 0600 FG VV002 BECMG 2209/2212 9999 NSW BECMG 2220/2223 3500 BR

Time: 00:55 (23:55 UTC)

Current weather observation

The report was made 25 minutes ago, at 23:30 UTC
Wind calm
Temperature 5°C
Humidity 93%
Pressure 1025 hPa
Visibility: 3000 m
Overcast at a height of 3000 ft
mist

Change units

Forecast

The report was made 55 minutes ago, at 23:00 UTC
Forecast valid from 22 at 00 UTC to 22 at 24 UTC
Wind 2 kt from variable directions
Visibility: 3500 m
Few clouds at a height of 1000 ft
Broken clouds at a height of 3000 ft
mist
Probability 30%
from 22 at 00 UTC to 22 at 07 UTC
Visibility: 0600 m
at a height of 200 ft
fog
Becoming
from 22 at 09 UTC to 22 at 12 UTC
Visibility 10 km or more
Becoming
from 22 at 20 UTC to 22 at 23 UTC
Visibility: 3500 m
mist
The information on this site is subject to a disclaimer
Weather : Europe Africa North America South America Asia Australia-Oceania Others
Satellite images 15-day forecastsClimateMarine weather Cyclones Lightning AirportsFAQ Languages Contact Newsletter About